N417JT KGTU-KFLY
Flight info
| Callsign | N417JT |
|---|---|
| Flight time | 2h 43m |
| Altitude | 26000 |
| Route | ELOEL3 ELOEL BWD KIRST KVLIP CAUDE LANTT/N0264F160 V81 ACAGU BRESH PUB |
| Aircraft | SF50/L-BDGRSWY/LB2U2 |
Departure
| Time | 2026-05-04 22:03 |
|---|---|
| Airport | Georgetown Executive Airport at Johnny Gantt Field (KGTU) |
Arrival
| Time | 2026-05-05 00:46 |
|---|---|
| Airport | Meadow Lake Airport (KFLY) |
| Time | Latitude | Longitude | Altitude | Speed | Heading |
|---|---|---|---|---|---|
| 2026-05-04 22:02 | 30.68560 | -97.67795 | 782 ft | 0 kts | 183° |
| 2026-05-04 22:02 | 30.68454 | -97.67802 | 778 ft | 44 kts | 184° |
| 2026-05-04 22:02 | 30.67953 | -97.67838 | 830 ft | 93 kts | 183° |
| 2026-05-04 22:03 | 30.67260 | -97.67911 | 1220 ft | 99 kts | 184° |
| 2026-05-04 22:03 | 30.66504 | -97.68056 | 1600 ft | 123 kts | 188° |
| 2026-05-04 22:03 | 30.65633 | -97.68231 | 2222 ft | 133 kts | 205° |
| 2026-05-04 22:03 | 30.65104 | -97.69156 | 2843 ft | 156 kts | 259° |
| 2026-05-04 22:04 | 30.65589 | -97.70334 | 3456 ft | 179 kts | 314° |
| 2026-05-04 22:04 | 30.66617 | -97.71192 | 4151 ft | 177 kts | 319° |
| 2026-05-04 22:04 | 30.67690 | -97.71805 | 4837 ft | 178 kts | 338° |
| 2026-05-04 22:04 | 30.68942 | -97.72274 | 5029 ft | 198 kts | 336° |
| 2026-05-04 22:05 | 30.70059 | -97.73060 | 5547 ft | 180 kts | 302° |
| 2026-05-04 22:05 | 30.70590 | -97.74306 | 6120 ft | 167 kts | 283° |
| 2026-05-04 22:05 | 30.70948 | -97.75570 | 6606 ft | 166 kts | 287° |
| 2026-05-04 22:05 | 30.71336 | -97.76857 | 6945 ft | 171 kts | 286° |
| 2026-05-04 22:06 | 30.71727 | -97.78165 | 7420 ft | 169 kts | 286° |
| 2026-05-04 22:06 | 30.72107 | -97.79420 | 7885 ft | 167 kts | 287° |
| 2026-05-04 22:06 | 30.72498 | -97.80702 | 8309 ft | 167 kts | 288° |
| 2026-05-04 22:06 | 30.72894 | -97.82000 | 8657 ft | 173 kts | 287° |
| 2026-05-04 22:07 | 30.73282 | -97.83312 | 9161 ft | 169 kts | 287° |
| 2026-05-04 22:07 | 30.73747 | -97.84577 | 9552 ft | 173 kts | 299° |
| 2026-05-04 22:07 | 30.74528 | -97.85658 | 9964 ft | 176 kts | 313° |
| 2026-05-04 22:07 | 30.75548 | -97.86441 | 10346 ft | 181 kts | 329° |
| 2026-05-04 22:08 | 30.76761 | -97.86919 | 10727 ft | 185 kts | 336° |
| 2026-05-04 22:08 | 30.77991 | -97.87379 | 11103 ft | 185 kts | 335° |
| 2026-05-04 22:08 | 30.79219 | -97.87843 | 11487 ft | 186 kts | 335° |
| 2026-05-04 22:08 | 30.80434 | -97.88296 | 11877 ft | 185 kts | 335° |
| 2026-05-04 22:09 | 30.81666 | -97.88755 | 12256 ft | 186 kts | 335° |
| 2026-05-04 22:09 | 30.82899 | -97.89214 | 12644 ft | 186 kts | 334° |
| 2026-05-04 22:09 | 30.84133 | -97.89673 | 13014 ft | 186 kts | 334° |
| 2026-05-04 22:09 | 30.85373 | -97.90136 | 13388 ft | 187 kts | 334° |
| 2026-05-04 22:10 | 30.86611 | -97.90597 | 13754 ft | 187 kts | 334° |
| 2026-05-04 22:10 | 30.87853 | -97.91059 | 14077 ft | 187 kts | 334° |
| 2026-05-04 22:10 | 30.89095 | -97.91522 | 14408 ft | 187 kts | 333° |
| 2026-05-04 22:10 | 30.90290 | -97.92051 | 14723 ft | 183 kts | 324° |
| 2026-05-04 22:11 | 30.91327 | -97.92875 | 15049 ft | 178 kts | 314° |
| 2026-05-04 22:11 | 30.92242 | -97.93839 | 15375 ft | 178 kts | 313° |
| 2026-05-04 22:11 | 30.93175 | -97.94792 | 15711 ft | 178 kts | 313° |
| 2026-05-04 22:11 | 30.94092 | -97.95740 | 16018 ft | 177 kts | 313° |
| 2026-05-04 22:12 | 30.95016 | -97.96695 | 16331 ft | 177 kts | 313° |
| 2026-05-04 22:12 | 30.95942 | -97.97658 | 16625 ft | 178 kts | 313° |
| 2026-05-04 22:12 | 30.96857 | -97.98606 | 16917 ft | 178 kts | 313° |
| 2026-05-04 22:12 | 30.97789 | -97.99574 | 17213 ft | 179 kts | 313° |
| 2026-05-04 22:13 | 30.98719 | -98.00539 | 17503 ft | 179 kts | 313° |
| 2026-05-04 22:13 | 30.99652 | -98.01507 | 17817 ft | 180 kts | 313° |
| 2026-05-04 22:13 | 31.00579 | -98.02467 | 18129 ft | 179 kts | 313° |
| 2026-05-04 22:13 | 31.01517 | -98.03440 | 18392 ft | 180 kts | 313° |
| 2026-05-04 22:14 | 31.02450 | -98.04408 | 18655 ft | 179 kts | 312° |
| 2026-05-04 22:14 | 31.03383 | -98.05378 | 18899 ft | 180 kts | 312° |
| 2026-05-04 22:14 | 31.04305 | -98.06335 | 19160 ft | 179 kts | 312° |
| 2026-05-04 22:14 | 31.05233 | -98.07300 | 19408 ft | 179 kts | 311° |
| 2026-05-04 22:15 | 31.06163 | -98.08267 | 19666 ft | 179 kts | 311° |
| 2026-05-04 22:15 | 31.07093 | -98.09234 | 19911 ft | 178 kts | 311° |
| 2026-05-04 22:15 | 31.08018 | -98.10199 | 20142 ft | 178 kts | 311° |
| 2026-05-04 22:15 | 31.08948 | -98.11162 | 20375 ft | 178 kts | 311° |
| 2026-05-04 22:16 | 31.09871 | -98.12130 | 20613 ft | 178 kts | 310° |
| 2026-05-04 22:16 | 31.10797 | -98.13093 | 20853 ft | 178 kts | 310° |
| 2026-05-04 22:16 | 31.11709 | -98.14039 | 21109 ft | 176 kts | 310° |
| 2026-05-04 22:16 | 31.12626 | -98.14993 | 21372 ft | 175 kts | 309° |
| 2026-05-04 22:17 | 31.13531 | -98.15937 | 21629 ft | 174 kts | 309° |
| 2026-05-04 22:17 | 31.14432 | -98.16874 | 21893 ft | 173 kts | 309° |
| 2026-05-04 22:17 | 31.15323 | -98.17803 | 22154 ft | 171 kts | 309° |
| 2026-05-04 22:17 | 31.15912 | -98.18416 | 22339 ft | 170 kts | 308° |
| 2026-05-04 22:18 | 31.17075 | -98.19631 | 22692 ft | 168 kts | 308° |
| 2026-05-04 22:18 | 31.17663 | -98.20243 | 22866 ft | 167 kts | 308° |
| 2026-05-04 22:18 | 31.18518 | -98.21138 | 23124 ft | 166 kts | 308° |
| 2026-05-04 22:18 | 31.19381 | -98.22037 | 23391 ft | 165 kts | 307° |
| 2026-05-04 22:19 | 31.20236 | -98.22930 | 23612 ft | 164 kts | 307° |
| 2026-05-04 22:19 | 31.21075 | -98.23808 | 23816 ft | 163 kts | 307° |
| 2026-05-04 22:19 | 31.21926 | -98.24697 | 24020 ft | 162 kts | 307° |
| 2026-05-04 22:19 | 31.22767 | -98.25577 | 24220 ft | 162 kts | 308° |
| 2026-05-04 22:20 | 31.23595 | -98.26440 | 24417 ft | 161 kts | 308° |
| 2026-05-04 22:20 | 31.24427 | -98.27311 | 24619 ft | 160 kts | 308° |
| 2026-05-04 22:20 | 31.25258 | -98.28179 | 24817 ft | 160 kts | 308° |
| 2026-05-04 22:20 | 31.26091 | -98.29051 | 24978 ft | 163 kts | 309° |
| 2026-05-04 22:21 | 31.26941 | -98.29941 | 25161 ft | 164 kts | 309° |
| 2026-05-04 22:21 | 31.27779 | -98.30814 | 25373 ft | 162 kts | 309° |
| 2026-05-04 22:21 | 31.28619 | -98.31692 | 25590 ft | 161 kts | 309° |
| 2026-05-04 22:21 | 31.29455 | -98.32569 | 25803 ft | 160 kts | 309° |
| 2026-05-04 22:22 | 31.30302 | -98.33459 | 25862 ft | 167 kts | 309° |
| 2026-05-04 22:22 | 31.31188 | -98.34391 | 25866 ft | 175 kts | 309° |
| 2026-05-04 22:22 | 31.32099 | -98.35345 | 25872 ft | 180 kts | 309° |
| 2026-05-04 22:22 | 31.33049 | -98.36338 | 25873 ft | 185 kts | 309° |
| 2026-05-04 22:23 | 31.34015 | -98.37351 | 25874 ft | 188 kts | 309° |
| 2026-05-04 22:23 | 31.35002 | -98.38384 | 25873 ft | 192 kts | 309° |
| 2026-05-04 22:23 | 31.35998 | -98.39428 | 25864 ft | 195 kts | 309° |
| 2026-05-04 22:23 | 31.37013 | -98.40493 | 25863 ft | 197 kts | 309° |
| 2026-05-04 22:24 | 31.38045 | -98.41575 | 25862 ft | 200 kts | 309° |
| 2026-05-04 22:24 | 31.39077 | -98.42657 | 25858 ft | 202 kts | 310° |
| 2026-05-04 22:24 | 31.40129 | -98.43761 | 25856 ft | 204 kts | 310° |
| 2026-05-04 22:24 | 31.41192 | -98.44877 | 25858 ft | 205 kts | 310° |
| 2026-05-04 22:25 | 31.42267 | -98.46006 | 25855 ft | 208 kts | 310° |
| 2026-05-04 22:25 | 31.43334 | -98.47128 | 25856 ft | 209 kts | 310° |
| 2026-05-04 22:25 | 31.44426 | -98.48278 | 25855 ft | 211 kts | 310° |
| 2026-05-04 22:25 | 31.45525 | -98.49433 | 25857 ft | 213 kts | 310° |
| 2026-05-04 22:26 | 31.46634 | -98.50599 | 25851 ft | 214 kts | 310° |
| 2026-05-04 22:26 | 31.47741 | -98.51766 | 25848 ft | 217 kts | 310° |
| 2026-05-04 22:26 | 31.48874 | -98.52958 | 25850 ft | 219 kts | 310° |
| 2026-05-04 22:26 | 31.50011 | -98.54157 | 25850 ft | 221 kts | 310° |
| 2026-05-04 22:27 | 31.51161 | -98.55369 | 25848 ft | 223 kts | 310° |
| 2026-05-04 22:27 | 31.52314 | -98.56583 | 25847 ft | 226 kts | 311° |
| 2026-05-04 22:27 | 31.53489 | -98.57823 | 25848 ft | 228 kts | 311° |
| 2026-05-04 22:27 | 31.54673 | -98.59070 | 25848 ft | 229 kts | 311° |
| 2026-05-04 22:28 | 31.55859 | -98.60321 | 25849 ft | 230 kts | 311° |
| 2026-05-04 22:28 | 31.57041 | -98.61567 | 25843 ft | 231 kts | 311° |
| 2026-05-04 22:28 | 31.58237 | -98.62828 | 25844 ft | 232 kts | 311° |
| 2026-05-04 22:28 | 31.59437 | -98.64096 | 25843 ft | 232 kts | 311° |
| 2026-05-04 22:29 | 31.60634 | -98.65360 | 25844 ft | 232 kts | 311° |
| 2026-05-04 22:29 | 31.61839 | -98.66636 | 25843 ft | 233 kts | 311° |
| 2026-05-04 22:29 | 31.63042 | -98.67909 | 25843 ft | 233 kts | 311° |
| 2026-05-04 22:29 | 31.64235 | -98.69170 | 25843 ft | 233 kts | 311° |
| 2026-05-04 22:30 | 31.65444 | -98.70450 | 25839 ft | 234 kts | 311° |
| 2026-05-04 22:30 | 31.66651 | -98.71728 | 25835 ft | 234 kts | 311° |
| 2026-05-04 22:30 | 31.67862 | -98.73008 | 25831 ft | 233 kts | 310° |
| 2026-05-04 22:30 | 31.69065 | -98.74284 | 25831 ft | 233 kts | 310° |
| 2026-05-04 22:31 | 31.70268 | -98.75558 | 25834 ft | 233 kts | 310° |
| 2026-05-04 22:31 | 31.71459 | -98.76821 | 25834 ft | 233 kts | 310° |
| 2026-05-04 22:31 | 31.72665 | -98.78099 | 25833 ft | 233 kts | 310° |
| 2026-05-04 22:31 | 31.73865 | -98.79371 | 25833 ft | 232 kts | 310° |
| 2026-05-04 22:32 | 31.75064 | -98.80644 | 25834 ft | 232 kts | 310° |
| 2026-05-04 22:32 | 31.76263 | -98.81917 | 25835 ft | 232 kts | 310° |
| 2026-05-04 22:32 | 31.77461 | -98.83188 | 25838 ft | 233 kts | 310° |
| 2026-05-04 22:32 | 31.78665 | -98.84467 | 25839 ft | 233 kts | 310° |
| 2026-05-04 22:33 | 31.79851 | -98.85729 | 25839 ft | 233 kts | 310° |
| 2026-05-04 22:33 | 31.81056 | -98.87010 | 25839 ft | 233 kts | 310° |
| 2026-05-04 22:33 | 31.82259 | -98.88291 | 25839 ft | 233 kts | 310° |
| 2026-05-04 22:33 | 31.83464 | -98.89573 | 25839 ft | 233 kts | 310° |
| 2026-05-04 22:34 | 31.84666 | -98.90853 | 25840 ft | 233 kts | 310° |
| 2026-05-04 22:34 | 31.85851 | -98.92115 | 25838 ft | 232 kts | 310° |
| 2026-05-04 22:34 | 31.87057 | -98.93398 | 25839 ft | 232 kts | 310° |
| 2026-05-04 22:34 | 31.88259 | -98.94680 | 25839 ft | 232 kts | 310° |
| 2026-05-04 22:35 | 31.89537 | -98.95874 | 25838 ft | 237 kts | 316° |
| 2026-05-04 22:35 | 31.90939 | -98.96873 | 25836 ft | 240 kts | 321° |
| 2026-05-04 22:35 | 31.92397 | -98.97840 | 25835 ft | 240 kts | 320° |
| 2026-05-04 22:35 | 31.93850 | -98.98821 | 25834 ft | 240 kts | 320° |
| 2026-05-04 22:36 | 31.95300 | -98.99796 | 25833 ft | 240 kts | 320° |
| 2026-05-04 22:36 | 31.96738 | -99.00762 | 25832 ft | 240 kts | 320° |
| 2026-05-04 22:36 | 31.98193 | -99.01739 | 25827 ft | 240 kts | 320° |
| 2026-05-04 22:36 | 31.99646 | -99.02714 | 25825 ft | 240 kts | 320° |
| 2026-05-04 22:37 | 32.01099 | -99.03691 | 25823 ft | 240 kts | 320° |
| 2026-05-04 22:37 | 32.02554 | -99.04670 | 25843 ft | 240 kts | 320° |
| 2026-05-04 22:37 | 32.03998 | -99.05638 | 25819 ft | 241 kts | 321° |
| 2026-05-04 22:37 | 32.05455 | -99.06612 | 25817 ft | 241 kts | 320° |
| 2026-05-04 22:38 | 32.06917 | -99.07598 | 25808 ft | 241 kts | 320° |
| 2026-05-04 22:38 | 32.08358 | -99.08569 | 25798 ft | 241 kts | 320° |
| 2026-05-04 22:38 | 32.09818 | -99.09550 | 25793 ft | 241 kts | 320° |
| 2026-05-04 22:38 | 32.11269 | -99.10532 | 25794 ft | 240 kts | 320° |
| 2026-05-04 22:39 | 32.12723 | -99.11513 | 25791 ft | 240 kts | 320° |
| 2026-05-04 22:39 | 32.14176 | -99.12493 | 25785 ft | 240 kts | 320° |
| 2026-05-04 22:39 | 32.15636 | -99.13476 | 25791 ft | 240 kts | 320° |
| 2026-05-04 22:39 | 32.17071 | -99.14446 | 25791 ft | 240 kts | 320° |
| 2026-05-04 22:40 | 32.18523 | -99.15427 | 25779 ft | 240 kts | 320° |
| 2026-05-04 22:40 | 32.19976 | -99.16408 | 25775 ft | 240 kts | 320° |
| 2026-05-04 22:40 | 32.21427 | -99.17389 | 25779 ft | 240 kts | 320° |
| 2026-05-04 22:40 | 32.22863 | -99.18372 | 25775 ft | 239 kts | 320° |
| 2026-05-04 22:41 | 32.24312 | -99.19343 | 25776 ft | 240 kts | 320° |
| 2026-05-04 22:41 | 32.25760 | -99.20317 | 25781 ft | 239 kts | 320° |
| 2026-05-04 22:41 | 32.27205 | -99.21296 | 25777 ft | 239 kts | 320° |
| 2026-05-04 22:41 | 32.28652 | -99.22278 | 25787 ft | 239 kts | 320° |
| 2026-05-04 22:42 | 32.30086 | -99.23246 | 25783 ft | 240 kts | 320° |
| 2026-05-04 22:42 | 32.31538 | -99.24228 | 25781 ft | 240 kts | 320° |
| 2026-05-04 22:42 | 32.32987 | -99.25212 | 25778 ft | 240 kts | 320° |
| 2026-05-04 22:42 | 32.34419 | -99.26182 | 25773 ft | 239 kts | 320° |
| 2026-05-04 22:43 | 32.35865 | -99.27161 | 25777 ft | 239 kts | 320° |
| 2026-05-04 22:43 | 32.37308 | -99.28141 | 25779 ft | 239 kts | 320° |
| 2026-05-04 22:43 | 32.38753 | -99.29123 | 25765 ft | 239 kts | 320° |
| 2026-05-04 22:43 | 32.40195 | -99.30102 | 25769 ft | 239 kts | 320° |
| 2026-05-04 22:44 | 32.41636 | -99.31082 | 25769 ft | 239 kts | 320° |
| 2026-05-04 22:44 | 32.43080 | -99.32061 | 25769 ft | 239 kts | 320° |
| 2026-05-04 22:44 | 32.44520 | -99.33041 | 25770 ft | 239 kts | 320° |
| 2026-05-04 22:44 | 32.45963 | -99.34024 | 25770 ft | 239 kts | 320° |
| 2026-05-04 22:45 | 32.47410 | -99.35006 | 25767 ft | 240 kts | 320° |
| 2026-05-04 22:45 | 32.50302 | -99.36974 | 25760 ft | 239 kts | 320° |
| 2026-05-04 22:45 | 32.51747 | -99.37956 | 25779 ft | 239 kts | 320° |
| 2026-05-04 22:46 | 32.53191 | -99.38940 | 25777 ft | 239 kts | 320° |
| 2026-05-04 22:46 | 32.54621 | -99.39914 | 25783 ft | 240 kts | 319° |
| 2026-05-04 22:46 | 32.56074 | -99.40906 | 25779 ft | 240 kts | 319° |
| 2026-05-04 22:46 | 32.57528 | -99.41895 | 25779 ft | 240 kts | 319° |
| 2026-05-04 22:47 | 32.58973 | -99.42882 | 25772 ft | 239 kts | 319° |
| 2026-05-04 22:47 | 32.60397 | -99.43855 | 25771 ft | 239 kts | 319° |
| 2026-05-04 22:47 | 32.61841 | -99.44841 | 25770 ft | 239 kts | 319° |
| 2026-05-04 22:47 | 32.63286 | -99.45829 | 25769 ft | 239 kts | 319° |
| 2026-05-04 22:48 | 32.64728 | -99.46816 | 25752 ft | 239 kts | 319° |
| 2026-05-04 22:48 | 32.66152 | -99.47787 | 25750 ft | 239 kts | 319° |
| 2026-05-04 22:48 | 32.67594 | -99.48774 | 25749 ft | 239 kts | 319° |
| 2026-05-04 22:48 | 32.69043 | -99.49763 | 25740 ft | 239 kts | 319° |
| 2026-05-04 22:49 | 32.70486 | -99.50750 | 25738 ft | 239 kts | 319° |
| 2026-05-04 22:49 | 32.71932 | -99.51741 | 25735 ft | 239 kts | 319° |
| 2026-05-04 22:49 | 32.73362 | -99.52719 | 25731 ft | 240 kts | 319° |
| 2026-05-04 22:49 | 32.74807 | -99.53709 | 25726 ft | 240 kts | 319° |
| 2026-05-04 22:50 | 32.76251 | -99.54697 | 25723 ft | 240 kts | 319° |
| 2026-05-04 22:50 | 32.77699 | -99.55691 | 25724 ft | 240 kts | 319° |
| 2026-05-04 22:50 | 32.79144 | -99.56682 | 25740 ft | 240 kts | 319° |
| 2026-05-04 22:50 | 32.80598 | -99.57680 | 25736 ft | 240 kts | 319° |
| 2026-05-04 22:51 | 32.82034 | -99.58666 | 25731 ft | 240 kts | 319° |
| 2026-05-04 22:51 | 32.83483 | -99.59659 | 25730 ft | 239 kts | 319° |
| 2026-05-04 22:51 | 32.84901 | -99.60682 | 25730 ft | 237 kts | 317° |
| 2026-05-04 22:51 | 32.86285 | -99.61721 | 25733 ft | 237 kts | 317° |
| 2026-05-04 22:52 | 32.87686 | -99.62764 | 25736 ft | 237 kts | 317° |
| 2026-05-04 22:52 | 32.89072 | -99.63795 | 25730 ft | 237 kts | 317° |
| 2026-05-04 22:52 | 32.90468 | -99.64836 | 25722 ft | 237 kts | 317° |
| 2026-05-04 22:52 | 32.91869 | -99.65882 | 25721 ft | 236 kts | 317° |
| 2026-05-04 22:53 | 32.93264 | -99.66923 | 25718 ft | 236 kts | 317° |
| 2026-05-04 22:53 | 32.94657 | -99.67961 | 25718 ft | 236 kts | 317° |
| 2026-05-04 22:53 | 32.96054 | -99.69005 | 25721 ft | 236 kts | 317° |
| 2026-05-04 22:53 | 32.97433 | -99.70034 | 25722 ft | 236 kts | 317° |
| 2026-05-04 22:54 | 32.98835 | -99.71083 | 25718 ft | 236 kts | 317° |
| 2026-05-04 22:54 | 33.00231 | -99.72128 | 25710 ft | 236 kts | 317° |
| 2026-05-04 22:54 | 33.01608 | -99.73158 | 25711 ft | 236 kts | 317° |
| 2026-05-04 22:54 | 33.03003 | -99.74201 | 25710 ft | 236 kts | 317° |
| 2026-05-04 22:55 | 33.04393 | -99.75242 | 25710 ft | 236 kts | 317° |
| 2026-05-04 22:55 | 33.05789 | -99.76287 | 25713 ft | 236 kts | 317° |
| 2026-05-04 22:55 | 33.07179 | -99.77329 | 25711 ft | 236 kts | 317° |
| 2026-05-04 22:55 | 33.08551 | -99.78356 | 25713 ft | 235 kts | 317° |
| 2026-05-04 22:56 | 33.09943 | -99.79400 | 25703 ft | 235 kts | 317° |
| 2026-05-04 22:56 | 33.11332 | -99.80440 | 25701 ft | 235 kts | 317° |
| 2026-05-04 22:56 | 33.12721 | -99.81481 | 25703 ft | 235 kts | 317° |
| 2026-05-04 22:56 | 33.14108 | -99.82523 | 25705 ft | 235 kts | 317° |
| 2026-05-04 22:57 | 33.15479 | -99.83551 | 25692 ft | 235 kts | 317° |
| 2026-05-04 22:57 | 33.16873 | -99.84598 | 25689 ft | 236 kts | 317° |
| 2026-05-04 22:57 | 33.18267 | -99.85648 | 25694 ft | 236 kts | 317° |
| 2026-05-04 22:57 | 33.19624 | -99.86662 | 26001 ft | 223 kts | 317° |
| 2026-05-04 22:58 | 33.20865 | -99.87573 | 26728 ft | 194 kts | 315° |
| 2026-05-04 22:58 | 33.21927 | -99.88370 | 27429 ft | 167 kts | 313° |
| 2026-05-04 22:58 | 33.22882 | -99.89105 | 27687 ft | 165 kts | 312° |
| 2026-05-04 22:58 | 33.23878 | -99.89879 | 27692 ft | 174 kts | 313° |
| 2026-05-04 22:59 | 33.24912 | -99.90658 | 27703 ft | 181 kts | 314° |
| 2026-05-04 22:59 | 33.25995 | -99.91472 | 27705 ft | 186 kts | 314° |
| 2026-05-04 22:59 | 33.27110 | -99.92308 | 27706 ft | 191 kts | 314° |
| 2026-05-04 22:59 | 33.28250 | -99.93165 | 27712 ft | 195 kts | 314° |
| 2026-05-04 23:00 | 33.29401 | -99.94033 | 27704 ft | 200 kts | 314° |
| 2026-05-04 23:00 | 33.30593 | -99.94931 | 27705 ft | 204 kts | 314° |
| 2026-05-04 23:00 | 33.31808 | -99.95844 | 27707 ft | 207 kts | 314° |
| 2026-05-04 23:00 | 33.33036 | -99.96771 | 27704 ft | 211 kts | 314° |
| 2026-05-04 23:01 | 33.34291 | -99.97719 | 27699 ft | 215 kts | 315° |
| 2026-05-04 23:01 | 33.35572 | -99.98684 | 27694 ft | 219 kts | 315° |
| 2026-05-04 23:01 | 33.36875 | -99.99668 | 27696 ft | 223 kts | 315° |
| 2026-05-04 23:01 | 33.38178 | -100.00654 | 27695 ft | 226 kts | 315° |
| 2026-05-04 23:02 | 33.39516 | -100.01661 | 27694 ft | 228 kts | 315° |
| 2026-05-04 23:02 | 33.40860 | -100.02678 | 27694 ft | 229 kts | 315° |
| 2026-05-04 23:02 | 33.42218 | -100.03707 | 27693 ft | 231 kts | 315° |
| 2026-05-04 23:02 | 33.43584 | -100.04740 | 27695 ft | 232 kts | 315° |
| 2026-05-04 23:03 | 33.44955 | -100.05778 | 27693 ft | 233 kts | 315° |
| 2026-05-04 23:03 | 33.46330 | -100.06817 | 27694 ft | 234 kts | 315° |
| 2026-05-04 23:03 | 33.47700 | -100.07854 | 27695 ft | 235 kts | 315° |
| 2026-05-04 23:03 | 33.49083 | -100.08900 | 27693 ft | 235 kts | 316° |
| 2026-05-04 23:04 | 33.50473 | -100.09955 | 27693 ft | 236 kts | 316° |
| 2026-05-04 23:04 | 33.51864 | -100.11010 | 27693 ft | 237 kts | 316° |
| 2026-05-04 23:04 | 33.53241 | -100.12053 | 27693 ft | 237 kts | 316° |
| 2026-05-04 23:04 | 33.54639 | -100.13115 | 27684 ft | 238 kts | 316° |
| 2026-05-04 23:05 | 33.56041 | -100.14178 | 27683 ft | 238 kts | 316° |
| 2026-05-04 23:05 | 33.56974 | -100.14886 | 27683 ft | 238 kts | 316° |
| 2026-05-04 23:05 | 33.58376 | -100.15952 | 27684 ft | 238 kts | 316° |
| 2026-05-04 23:05 | 33.59780 | -100.17019 | 27684 ft | 239 kts | 316° |
| 2026-05-04 23:06 | 33.61645 | -100.18437 | 27683 ft | 239 kts | 316° |
| 2026-05-04 23:06 | 33.62578 | -100.19148 | 27683 ft | 240 kts | 316° |
| 2026-05-04 23:06 | 33.63994 | -100.20227 | 27682 ft | 240 kts | 316° |
| 2026-05-04 23:06 | 33.65862 | -100.21647 | 27668 ft | 240 kts | 316° |
| 2026-05-04 23:07 | 33.66818 | -100.22374 | 27669 ft | 240 kts | 316° |
| 2026-05-04 23:07 | 33.68212 | -100.23434 | 27668 ft | 239 kts | 316° |
| 2026-05-04 23:07 | 33.69622 | -100.24509 | 27665 ft | 239 kts | 316° |
| 2026-05-04 23:07 | 33.71025 | -100.25579 | 27665 ft | 239 kts | 316° |
| 2026-05-04 23:08 | 33.72430 | -100.26651 | 27662 ft | 238 kts | 316° |
| 2026-05-04 23:08 | 33.73820 | -100.27711 | 27662 ft | 238 kts | 316° |
| 2026-05-04 23:08 | 33.75221 | -100.28779 | 27656 ft | 238 kts | 316° |
| 2026-05-04 23:08 | 33.76625 | -100.29851 | 27656 ft | 238 kts | 316° |
| 2026-05-04 23:09 | 33.78023 | -100.30919 | 27661 ft | 238 kts | 316° |
| 2026-05-04 23:09 | 33.79427 | -100.31994 | 27670 ft | 238 kts | 316° |
| 2026-05-04 23:09 | 33.80812 | -100.33052 | 27670 ft | 238 kts | 316° |
| 2026-05-04 23:09 | 33.82216 | -100.34127 | 27671 ft | 238 kts | 316° |
| 2026-05-04 23:10 | 33.83627 | -100.35206 | 27670 ft | 239 kts | 316° |
| 2026-05-04 23:10 | 33.85020 | -100.36272 | 27670 ft | 239 kts | 316° |
| 2026-05-04 23:10 | 33.86418 | -100.37342 | 27670 ft | 238 kts | 316° |
| 2026-05-04 23:10 | 33.87776 | -100.38444 | 27669 ft | 234 kts | 312° |
| 2026-05-04 23:11 | 33.89094 | -100.39622 | 27664 ft | 235 kts | 313° |
| 2026-05-04 23:11 | 33.90418 | -100.40778 | 27664 ft | 235 kts | 313° |
| 2026-05-04 23:11 | 33.91738 | -100.41936 | 27664 ft | 235 kts | 313° |
| 2026-05-04 23:11 | 33.93056 | -100.43099 | 27661 ft | 235 kts | 313° |
| 2026-05-04 23:12 | 33.94374 | -100.44261 | 27664 ft | 235 kts | 313° |
| 2026-05-04 23:12 | 33.95691 | -100.45424 | 27664 ft | 235 kts | 313° |
| 2026-05-04 23:12 | 33.97013 | -100.46588 | 27665 ft | 235 kts | 313° |
| 2026-05-04 23:12 | 33.98331 | -100.47753 | 27660 ft | 235 kts | 313° |
| 2026-05-04 23:13 | 33.99634 | -100.48904 | 27655 ft | 236 kts | 313° |
| 2026-05-04 23:13 | 34.00957 | -100.50073 | 27655 ft | 236 kts | 313° |
| 2026-05-04 23:13 | 34.02282 | -100.51243 | 27656 ft | 236 kts | 313° |
| 2026-05-04 23:13 | 34.03609 | -100.52418 | 27655 ft | 237 kts | 313° |
| 2026-05-04 23:14 | 34.04942 | -100.53597 | 27657 ft | 237 kts | 313° |
| 2026-05-04 23:14 | 34.06276 | -100.54775 | 27658 ft | 237 kts | 313° |
| 2026-05-04 23:14 | 34.07607 | -100.55953 | 27650 ft | 237 kts | 313° |
| 2026-05-04 23:14 | 34.08935 | -100.57129 | 27650 ft | 237 kts | 313° |
| 2026-05-04 23:15 | 34.10268 | -100.58308 | 27636 ft | 237 kts | 313° |
| 2026-05-04 23:15 | 34.11598 | -100.59487 | 27668 ft | 236 kts | 313° |
| 2026-05-04 23:15 | 34.12856 | -100.60582 | 28371 ft | 210 kts | 312° |
| 2026-05-04 23:15 | 34.13958 | -100.61545 | 29185 ft | 180 kts | 309° |
| 2026-05-04 23:16 | 34.14915 | -100.62402 | 29627 ft | 169 kts | 308° |
| 2026-05-04 23:16 | 34.15866 | -100.63275 | 29635 ft | 175 kts | 308° |
| 2026-05-04 23:16 | 34.16864 | -100.64169 | 29636 ft | 181 kts | 309° |
| 2026-05-04 23:16 | 34.17894 | -100.65082 | 29643 ft | 186 kts | 309° |
| 2026-05-04 23:17 | 34.18951 | -100.66019 | 29644 ft | 191 kts | 310° |
| 2026-05-04 23:17 | 34.20018 | -100.66967 | 29646 ft | 195 kts | 310° |
| 2026-05-04 23:17 | 34.21123 | -100.67949 | 29647 ft | 199 kts | 310° |
| 2026-05-04 23:17 | 34.22252 | -100.68953 | 29644 ft | 204 kts | 310° |
| 2026-05-04 23:18 | 34.23408 | -100.69983 | 29646 ft | 209 kts | 310° |
| 2026-05-04 23:18 | 34.24594 | -100.71036 | 29644 ft | 214 kts | 311° |
| 2026-05-04 23:18 | 34.25802 | -100.72108 | 29647 ft | 217 kts | 311° |
| 2026-05-04 23:18 | 34.27030 | -100.73200 | 29642 ft | 221 kts | 311° |
| 2026-05-04 23:19 | 34.28272 | -100.74306 | 29644 ft | 223 kts | 311° |
| 2026-05-04 23:19 | 34.29528 | -100.75422 | 29643 ft | 225 kts | 311° |
| 2026-05-04 23:19 | 34.30794 | -100.76551 | 29646 ft | 227 kts | 311° |
| 2026-05-04 23:19 | 34.32055 | -100.77674 | 29644 ft | 228 kts | 311° |
| 2026-05-04 23:20 | 34.33338 | -100.78818 | 29643 ft | 230 kts | 312° |
| 2026-05-04 23:20 | 34.34628 | -100.79969 | 29644 ft | 231 kts | 311° |
| 2026-05-04 23:20 | 34.35928 | -100.81130 | 29634 ft | 232 kts | 312° |
| 2026-05-04 23:20 | 34.37229 | -100.82292 | 29636 ft | 233 kts | 312° |
| 2026-05-04 23:21 | 34.38534 | -100.83458 | 29633 ft | 234 kts | 312° |
| 2026-05-04 23:21 | 34.39845 | -100.84630 | 29634 ft | 234 kts | 312° |
| 2026-05-04 23:21 | 34.41158 | -100.85803 | 29635 ft | 235 kts | 312° |
| 2026-05-04 23:21 | 34.42471 | -100.86978 | 29643 ft | 235 kts | 312° |
| 2026-05-04 23:22 | 34.43788 | -100.88157 | 29636 ft | 235 kts | 312° |
| 2026-05-04 23:22 | 34.45108 | -100.89336 | 29637 ft | 235 kts | 312° |
| 2026-05-04 23:22 | 34.46425 | -100.90516 | 29638 ft | 236 kts | 312° |
| 2026-05-04 23:22 | 34.47745 | -100.91698 | 29637 ft | 236 kts | 312° |
| 2026-05-04 23:23 | 34.49063 | -100.92879 | 29641 ft | 236 kts | 312° |
| 2026-05-04 23:23 | 34.50386 | -100.94062 | 29652 ft | 237 kts | 311° |
| 2026-05-04 23:23 | 34.51713 | -100.95254 | 29637 ft | 237 kts | 312° |
| 2026-05-04 23:23 | 34.53039 | -100.96443 | 29638 ft | 237 kts | 312° |
| 2026-05-04 23:24 | 34.54369 | -100.97640 | 29635 ft | 238 kts | 312° |
| 2026-05-04 23:24 | 34.55700 | -100.98835 | 29634 ft | 238 kts | 312° |
| 2026-05-04 23:24 | 34.57034 | -101.00033 | 29635 ft | 239 kts | 312° |
| 2026-05-04 23:24 | 34.58367 | -101.01231 | 29644 ft | 238 kts | 312° |
| 2026-05-04 23:25 | 34.59682 | -101.02410 | 29642 ft | 237 kts | 312° |
| 2026-05-04 23:25 | 34.61004 | -101.03601 | 29643 ft | 236 kts | 311° |
| 2026-05-04 23:25 | 34.62320 | -101.04787 | 29635 ft | 235 kts | 311° |
| 2026-05-04 23:25 | 34.63630 | -101.05968 | 29639 ft | 234 kts | 311° |
| 2026-05-04 23:26 | 34.64939 | -101.07152 | 29632 ft | 235 kts | 312° |
| 2026-05-04 23:26 | 34.66256 | -101.08333 | 29631 ft | 235 kts | 312° |
| 2026-05-04 23:26 | 34.67573 | -101.09515 | 29628 ft | 235 kts | 312° |
| 2026-05-04 23:26 | 34.68889 | -101.10704 | 29628 ft | 236 kts | 311° |
| 2026-05-04 23:27 | 34.70208 | -101.11894 | 29631 ft | 236 kts | 311° |
| 2026-05-04 23:27 | 34.71527 | -101.13083 | 29638 ft | 236 kts | 312° |
| 2026-05-04 23:27 | 34.72844 | -101.14271 | 29635 ft | 236 kts | 312° |
| 2026-05-04 23:27 | 34.74162 | -101.15462 | 29643 ft | 237 kts | 311° |
| 2026-05-04 23:28 | 34.75488 | -101.16661 | 29637 ft | 237 kts | 311° |
| 2026-05-04 23:28 | 34.76815 | -101.17860 | 29637 ft | 238 kts | 311° |
| 2026-05-04 23:28 | 34.78143 | -101.19060 | 29640 ft | 237 kts | 311° |
| 2026-05-04 23:28 | 34.79461 | -101.20251 | 29638 ft | 236 kts | 311° |
| 2026-05-04 23:29 | 34.80775 | -101.21445 | 29638 ft | 235 kts | 311° |
| 2026-05-04 23:29 | 34.82089 | -101.22631 | 29639 ft | 235 kts | 311° |
| 2026-05-04 23:29 | 34.83401 | -101.23818 | 29636 ft | 235 kts | 311° |
| 2026-05-04 23:29 | 34.84711 | -101.25007 | 29632 ft | 235 kts | 311° |
| 2026-05-04 23:30 | 34.86022 | -101.26198 | 29634 ft | 235 kts | 311° |
| 2026-05-04 23:30 | 34.87332 | -101.27386 | 29630 ft | 235 kts | 311° |
| 2026-05-04 23:30 | 34.88644 | -101.28573 | 29630 ft | 234 kts | 311° |
| 2026-05-04 23:30 | 34.89934 | -101.29743 | 29630 ft | 234 kts | 311° |
| 2026-05-04 23:31 | 34.91258 | -101.30945 | 29628 ft | 234 kts | 311° |
| 2026-05-04 23:31 | 34.92566 | -101.32134 | 29629 ft | 235 kts | 311° |
| 2026-05-04 23:31 | 34.93864 | -101.33312 | 29629 ft | 236 kts | 311° |
| 2026-05-04 23:31 | 34.95180 | -101.34510 | 29633 ft | 236 kts | 311° |
| 2026-05-04 23:32 | 34.96501 | -101.35712 | 29635 ft | 237 kts | 311° |
| 2026-05-04 23:32 | 34.97825 | -101.36916 | 29643 ft | 237 kts | 311° |
| 2026-05-04 23:32 | 34.99148 | -101.38119 | 29643 ft | 236 kts | 311° |
| 2026-05-04 23:32 | 35.00460 | -101.39314 | 29642 ft | 235 kts | 311° |
| 2026-05-04 23:33 | 35.01772 | -101.40509 | 29641 ft | 234 kts | 311° |
| 2026-05-04 23:33 | 35.03065 | -101.41689 | 29640 ft | 234 kts | 311° |
| 2026-05-04 23:33 | 35.04377 | -101.42886 | 29640 ft | 235 kts | 311° |
| 2026-05-04 23:33 | 35.05688 | -101.44081 | 29642 ft | 235 kts | 311° |
| 2026-05-04 23:34 | 35.07003 | -101.45280 | 29643 ft | 236 kts | 311° |
| 2026-05-04 23:34 | 35.08320 | -101.46482 | 29645 ft | 236 kts | 311° |
| 2026-05-04 23:34 | 35.09618 | -101.47667 | 29644 ft | 236 kts | 311° |
| 2026-05-04 23:34 | 35.10876 | -101.48928 | 29645 ft | 231 kts | 306° |
| 2026-05-04 23:35 | 35.11998 | -101.50313 | 29645 ft | 229 kts | 304° |
| 2026-05-04 23:35 | 35.13109 | -101.51717 | 29645 ft | 229 kts | 304° |
| 2026-05-04 23:35 | 35.14223 | -101.53117 | 29646 ft | 230 kts | 304° |
| 2026-05-04 23:35 | 35.15336 | -101.54524 | 29647 ft | 230 kts | 304° |
| 2026-05-04 23:36 | 35.16449 | -101.55932 | 29754 ft | 230 kts | 304° |
| 2026-05-04 23:36 | 35.17561 | -101.57339 | 29762 ft | 230 kts | 304° |
| 2026-05-04 23:36 | 35.18662 | -101.58731 | 29768 ft | 230 kts | 304° |
| 2026-05-04 23:36 | 35.19775 | -101.60140 | 29802 ft | 230 kts | 304° |
| 2026-05-04 23:37 | 35.20880 | -101.61536 | 29773 ft | 227 kts | 304° |
| 2026-05-04 23:37 | 35.21968 | -101.62912 | 29769 ft | 223 kts | 304° |
| 2026-05-04 23:37 | 35.23045 | -101.64283 | 29766 ft | 224 kts | 304° |
| 2026-05-04 23:37 | 35.24129 | -101.65657 | 29767 ft | 225 kts | 304° |
| 2026-05-04 23:38 | 35.25217 | -101.67036 | 29768 ft | 225 kts | 304° |
| 2026-05-04 23:38 | 35.26304 | -101.68414 | 29763 ft | 225 kts | 304° |
| 2026-05-04 23:38 | 35.27392 | -101.69796 | 29762 ft | 225 kts | 304° |
| 2026-05-04 23:38 | 35.28482 | -101.71181 | 29762 ft | 226 kts | 304° |
| 2026-05-04 23:39 | 35.29575 | -101.72567 | 29763 ft | 227 kts | 304° |
| 2026-05-04 23:39 | 35.30670 | -101.73959 | 29764 ft | 227 kts | 304° |
| 2026-05-04 23:39 | 35.31756 | -101.75338 | 29757 ft | 228 kts | 304° |
| 2026-05-04 23:39 | 35.32856 | -101.76739 | 29751 ft | 228 kts | 304° |
| 2026-05-04 23:40 | 35.33958 | -101.78143 | 29743 ft | 229 kts | 304° |
| 2026-05-04 23:40 | 35.35063 | -101.79552 | 29736 ft | 229 kts | 304° |
| 2026-05-04 23:40 | 35.36174 | -101.80963 | 29728 ft | 230 kts | 304° |
| 2026-05-04 23:40 | 35.37281 | -101.82372 | 29721 ft | 229 kts | 304° |
| 2026-05-04 23:41 | 35.38385 | -101.83775 | 29712 ft | 228 kts | 304° |
| 2026-05-04 23:41 | 35.39481 | -101.85179 | 29702 ft | 227 kts | 304° |
| 2026-05-04 23:41 | 35.40583 | -101.86538 | 29693 ft | 229 kts | 307° |
| 2026-05-04 23:41 | 35.41823 | -101.87790 | 29685 ft | 231 kts | 310° |
| 2026-05-04 23:42 | 35.43081 | -101.89016 | 29674 ft | 231 kts | 309° |
| 2026-05-04 23:42 | 35.44338 | -101.90255 | 29671 ft | 231 kts | 309° |
| 2026-05-04 23:42 | 35.45595 | -101.91495 | 29664 ft | 232 kts | 309° |
| 2026-05-04 23:42 | 35.46856 | -101.92725 | 29652 ft | 232 kts | 309° |
| 2026-05-04 23:43 | 35.48103 | -101.93945 | 29645 ft | 232 kts | 309° |
| 2026-05-04 23:43 | 35.49365 | -101.95186 | 29636 ft | 232 kts | 309° |
| 2026-05-04 23:43 | 35.50628 | -101.96425 | 29628 ft | 233 kts | 309° |
| 2026-05-04 23:43 | 35.51892 | -101.97668 | 29636 ft | 233 kts | 309° |
| 2026-05-04 23:44 | 35.53158 | -101.98914 | 29637 ft | 233 kts | 309° |
| 2026-05-04 23:44 | 35.54429 | -102.00164 | 29643 ft | 234 kts | 309° |
| 2026-05-04 23:44 | 35.55698 | -102.01413 | 29651 ft | 234 kts | 309° |
| 2026-05-04 23:44 | 35.56954 | -102.02651 | 29656 ft | 234 kts | 309° |
| 2026-05-04 23:45 | 35.58226 | -102.03903 | 29663 ft | 234 kts | 309° |
| 2026-05-04 23:45 | 35.59502 | -102.05157 | 29662 ft | 235 kts | 309° |
| 2026-05-04 23:45 | 35.60777 | -102.06415 | 29669 ft | 235 kts | 309° |
| 2026-05-04 23:45 | 35.62054 | -102.07675 | 29673 ft | 235 kts | 309° |
| 2026-05-04 23:46 | 35.63336 | -102.08938 | 29678 ft | 236 kts | 309° |
| 2026-05-04 23:46 | 35.64604 | -102.10187 | 29701 ft | 237 kts | 309° |
| 2026-05-04 23:46 | 35.65891 | -102.11455 | 29702 ft | 235 kts | 309° |
| 2026-05-04 23:46 | 35.67165 | -102.12714 | 29701 ft | 234 kts | 309° |
| 2026-05-04 23:47 | 35.68436 | -102.13967 | 29704 ft | 233 kts | 309° |
| 2026-05-04 23:47 | 35.69703 | -102.15224 | 29707 ft | 233 kts | 309° |
| 2026-05-04 23:47 | 35.70965 | -102.16472 | 29708 ft | 233 kts | 309° |
| 2026-05-04 23:47 | 35.72213 | -102.17705 | 29709 ft | 232 kts | 309° |
| 2026-05-04 23:48 | 35.73471 | -102.18952 | 29627 ft | 232 kts | 309° |
| 2026-05-04 23:48 | 35.74732 | -102.20198 | 29627 ft | 232 kts | 309° |
| 2026-05-04 23:48 | 35.75989 | -102.21444 | 29626 ft | 232 kts | 309° |
| 2026-05-04 23:48 | 35.77244 | -102.22689 | 29626 ft | 232 kts | 309° |
| 2026-05-04 23:49 | 35.78505 | -102.23938 | 29630 ft | 233 kts | 309° |
| 2026-05-04 23:49 | 35.79767 | -102.25190 | 29631 ft | 233 kts | 309° |
| 2026-05-04 23:49 | 35.81032 | -102.26443 | 29631 ft | 234 kts | 309° |
| 2026-05-04 23:49 | 35.82299 | -102.27701 | 29629 ft | 234 kts | 309° |
| 2026-05-04 23:50 | 35.83570 | -102.28961 | 29629 ft | 234 kts | 309° |
| 2026-05-04 23:50 | 35.84840 | -102.30223 | 29629 ft | 235 kts | 309° |
| 2026-05-04 23:50 | 35.86096 | -102.31470 | 29688 ft | 235 kts | 309° |
| 2026-05-04 23:50 | 35.87373 | -102.32739 | 29696 ft | 237 kts | 309° |
| 2026-05-04 23:51 | 35.88655 | -102.34014 | 29706 ft | 237 kts | 309° |
| 2026-05-04 23:51 | 35.89943 | -102.35294 | 29715 ft | 238 kts | 309° |
| 2026-05-04 23:51 | 35.91232 | -102.36578 | 29724 ft | 238 kts | 309° |
| 2026-05-04 23:51 | 35.92085 | -102.37428 | 29730 ft | 238 kts | 309° |
| 2026-05-04 23:52 | 35.93376 | -102.38714 | 29736 ft | 239 kts | 309° |
| 2026-05-04 23:52 | 35.94668 | -102.40002 | 29745 ft | 239 kts | 309° |
| 2026-05-04 23:52 | 35.95965 | -102.41294 | 29752 ft | 239 kts | 309° |
| 2026-05-04 23:52 | 35.97258 | -102.42585 | 29761 ft | 240 kts | 309° |
| 2026-05-04 23:53 | 35.98557 | -102.43882 | 29770 ft | 240 kts | 309° |
| 2026-05-04 23:53 | 35.99859 | -102.45178 | 29772 ft | 240 kts | 309° |
| 2026-05-04 23:53 | 36.01145 | -102.46464 | 29773 ft | 240 kts | 309° |
| 2026-05-04 23:53 | 36.02452 | -102.47768 | 29773 ft | 241 kts | 309° |
| 2026-05-04 23:54 | 36.03754 | -102.49069 | 29774 ft | 241 kts | 309° |
| 2026-05-04 23:54 | 36.05054 | -102.50367 | 29773 ft | 240 kts | 309° |
| 2026-05-04 23:54 | 36.06349 | -102.51664 | 29772 ft | 239 kts | 309° |
| 2026-05-04 23:54 | 36.07648 | -102.52962 | 29772 ft | 239 kts | 309° |
| 2026-05-04 23:55 | 36.08923 | -102.54238 | 29789 ft | 238 kts | 308° |
| 2026-05-04 23:55 | 36.10277 | -102.55464 | 29773 ft | 242 kts | 311° |
| 2026-05-04 23:55 | 36.13001 | -102.57885 | 29762 ft | 240 kts | 310° |
| 2026-05-04 23:56 | 36.14361 | -102.59095 | 29749 ft | 240 kts | 310° |
| 2026-05-04 23:56 | 36.15706 | -102.60292 | 29736 ft | 241 kts | 310° |
| 2026-05-04 23:56 | 36.17075 | -102.61509 | 29730 ft | 242 kts | 311° |
| 2026-05-04 23:56 | 36.18446 | -102.62728 | 29727 ft | 242 kts | 311° |
| 2026-05-04 23:57 | 36.19819 | -102.63950 | 29716 ft | 243 kts | 311° |
| 2026-05-04 23:57 | 36.21193 | -102.65172 | 29706 ft | 243 kts | 311° |
| 2026-05-04 23:57 | 36.22571 | -102.66398 | 29695 ft | 244 kts | 311° |
| 2026-05-04 23:57 | 36.23948 | -102.67625 | 29689 ft | 244 kts | 311° |
| 2026-05-04 23:58 | 36.25330 | -102.68856 | 29680 ft | 245 kts | 311° |
| 2026-05-04 23:58 | 36.26712 | -102.70087 | 29669 ft | 245 kts | 311° |
| 2026-05-04 23:58 | 36.28076 | -102.71305 | 29654 ft | 245 kts | 311° |
| 2026-05-04 23:58 | 36.29477 | -102.72555 | 29648 ft | 244 kts | 311° |
| 2026-05-04 23:59 | 36.30837 | -102.73768 | 29682 ft | 243 kts | 310° |
| 2026-05-04 23:59 | 36.32211 | -102.74998 | 29629 ft | 244 kts | 310° |
| 2026-05-04 23:59 | 36.33586 | -102.76224 | 29620 ft | 242 kts | 310° |
| 2026-05-04 23:59 | 36.34947 | -102.77443 | 29617 ft | 241 kts | 310° |
| 2026-05-05 00:00 | 36.36308 | -102.78662 | 29613 ft | 241 kts | 310° |
| 2026-05-05 00:00 | 36.37211 | -102.79473 | 29614 ft | 242 kts | 310° |
| 2026-05-05 00:00 | 36.39043 | -102.81112 | 29615 ft | 243 kts | 310° |
| 2026-05-05 00:00 | 36.40414 | -102.82340 | 29614 ft | 243 kts | 310° |
| 2026-05-05 00:01 | 36.41788 | -102.83570 | 29615 ft | 244 kts | 310° |
| 2026-05-05 00:01 | 36.43145 | -102.84786 | 29615 ft | 244 kts | 310° |
| 2026-05-05 00:01 | 36.44521 | -102.86021 | 29613 ft | 244 kts | 310° |
| 2026-05-05 00:01 | 36.45900 | -102.87258 | 29613 ft | 244 kts | 310° |
| 2026-05-05 00:02 | 36.47278 | -102.88497 | 29611 ft | 245 kts | 310° |
| 2026-05-05 00:02 | 36.48660 | -102.89737 | 29611 ft | 245 kts | 310° |
| 2026-05-05 00:02 | 36.50042 | -102.90979 | 29611 ft | 245 kts | 310° |
| 2026-05-05 00:02 | 36.51422 | -102.92221 | 29622 ft | 245 kts | 310° |
| 2026-05-05 00:03 | 36.52800 | -102.93461 | 29635 ft | 245 kts | 310° |
| 2026-05-05 00:03 | 36.54186 | -102.94712 | 29623 ft | 246 kts | 309° |
| 2026-05-05 00:03 | 36.55553 | -102.95940 | 29623 ft | 244 kts | 309° |
| 2026-05-05 00:03 | 36.56924 | -102.97174 | 29623 ft | 243 kts | 309° |
| 2026-05-05 00:04 | 36.58287 | -102.98403 | 29614 ft | 241 kts | 309° |
| 2026-05-05 00:04 | 36.59643 | -102.99628 | 29614 ft | 241 kts | 309° |
| 2026-05-05 00:04 | 36.61004 | -103.00860 | 29612 ft | 242 kts | 309° |
| 2026-05-05 00:04 | 36.62368 | -103.02092 | 29608 ft | 243 kts | 309° |
| 2026-05-05 00:05 | 36.63738 | -103.03326 | 29612 ft | 243 kts | 309° |
| 2026-05-05 00:05 | 36.65108 | -103.04563 | 29612 ft | 244 kts | 309° |
| 2026-05-05 00:05 | 36.66482 | -103.05806 | 29613 ft | 244 kts | 309° |
| 2026-05-05 00:05 | 36.67842 | -103.07035 | 29624 ft | 244 kts | 309° |
| 2026-05-05 00:06 | 36.69218 | -103.08280 | 29627 ft | 245 kts | 309° |
| 2026-05-05 00:06 | 36.70602 | -103.09532 | 29625 ft | 245 kts | 309° |
| 2026-05-05 00:06 | 36.71972 | -103.10771 | 29626 ft | 245 kts | 309° |
| 2026-05-05 00:06 | 36.73357 | -103.12027 | 29627 ft | 245 kts | 309° |
| 2026-05-05 00:07 | 36.74741 | -103.13280 | 29668 ft | 244 kts | 309° |
| 2026-05-05 00:07 | 36.76123 | -103.14535 | 29616 ft | 244 kts | 309° |
| 2026-05-05 00:07 | 36.77496 | -103.15781 | 29616 ft | 244 kts | 309° |
| 2026-05-05 00:07 | 36.78847 | -103.17007 | 29615 ft | 243 kts | 309° |
| 2026-05-05 00:08 | 36.80212 | -103.18247 | 29612 ft | 243 kts | 309° |
| 2026-05-05 00:08 | 36.81616 | -103.19453 | 29612 ft | 248 kts | 313° |
| 2026-05-05 00:08 | 36.83172 | -103.20484 | 29612 ft | 256 kts | 317° |
| 2026-05-05 00:08 | 36.84761 | -103.21440 | 29615 ft | 254 kts | 317° |
| 2026-05-05 00:09 | 36.86345 | -103.22420 | 29623 ft | 254 kts | 317° |
| 2026-05-05 00:09 | 36.87942 | -103.23402 | 29623 ft | 254 kts | 317° |
| 2026-05-05 00:09 | 36.89511 | -103.24366 | 29626 ft | 255 kts | 317° |
| 2026-05-05 00:09 | 36.91114 | -103.25349 | 29624 ft | 256 kts | 317° |
| 2026-05-05 00:10 | 36.92716 | -103.26330 | 29628 ft | 256 kts | 317° |
| 2026-05-05 00:10 | 36.94317 | -103.27314 | 29631 ft | 256 kts | 317° |
| 2026-05-05 00:10 | 36.95902 | -103.28290 | 29627 ft | 257 kts | 317° |
| 2026-05-05 00:10 | 36.97515 | -103.29281 | 29626 ft | 258 kts | 317° |
| 2026-05-05 00:11 | 36.99123 | -103.30270 | 29605 ft | 252 kts | 316° |
| 2026-05-05 00:11 | 37.00681 | -103.31231 | 29620 ft | 249 kts | 316° |
| 2026-05-05 00:11 | 37.02205 | -103.32185 | 29618 ft | 246 kts | 316° |
| 2026-05-05 00:11 | 37.03755 | -103.33122 | 29623 ft | 248 kts | 316° |
| 2026-05-05 00:12 | 37.05307 | -103.34076 | 29626 ft | 249 kts | 316° |
| 2026-05-05 00:12 | 37.06867 | -103.35045 | 29624 ft | 250 kts | 316° |
| 2026-05-05 00:12 | 37.08432 | -103.36013 | 29629 ft | 252 kts | 316° |
| 2026-05-05 00:12 | 37.10011 | -103.36984 | 29626 ft | 253 kts | 317° |
| 2026-05-05 00:13 | 37.11596 | -103.37963 | 29629 ft | 254 kts | 317° |
| 2026-05-05 00:13 | 37.13170 | -103.38934 | 29630 ft | 255 kts | 317° |
| 2026-05-05 00:13 | 37.14765 | -103.39921 | 29625 ft | 256 kts | 317° |
| 2026-05-05 00:13 | 37.16363 | -103.40907 | 29625 ft | 257 kts | 317° |
| 2026-05-05 00:14 | 37.17968 | -103.41901 | 29621 ft | 257 kts | 317° |
| 2026-05-05 00:14 | 37.19581 | -103.42899 | 29626 ft | 258 kts | 317° |
| 2026-05-05 00:14 | 37.21175 | -103.43880 | 29623 ft | 253 kts | 316° |
| 2026-05-05 00:14 | 37.22729 | -103.44843 | 29620 ft | 251 kts | 316° |
| 2026-05-05 00:15 | 37.24308 | -103.45831 | 29616 ft | 252 kts | 316° |
| 2026-05-05 00:15 | 37.25887 | -103.46811 | 29619 ft | 253 kts | 316° |
| 2026-05-05 00:15 | 37.27451 | -103.47779 | 29620 ft | 254 kts | 316° |
| 2026-05-05 00:15 | 37.29044 | -103.48769 | 29622 ft | 255 kts | 316° |
| 2026-05-05 00:16 | 37.30634 | -103.49756 | 29583 ft | 255 kts | 316° |
| 2026-05-05 00:16 | 37.32229 | -103.50747 | 29603 ft | 256 kts | 316° |
| 2026-05-05 00:16 | 37.33826 | -103.51741 | 29604 ft | 257 kts | 317° |
| 2026-05-05 00:16 | 37.35436 | -103.52741 | 29607 ft | 258 kts | 317° |
| 2026-05-05 00:17 | 37.37026 | -103.53731 | 29609 ft | 258 kts | 317° |
| 2026-05-05 00:17 | 37.38641 | -103.54736 | 29610 ft | 259 kts | 317° |
| 2026-05-05 00:17 | 37.40262 | -103.55746 | 29612 ft | 260 kts | 317° |
| 2026-05-05 00:17 | 37.41877 | -103.56758 | 29600 ft | 256 kts | 317° |
| 2026-05-05 00:18 | 37.43450 | -103.57732 | 29596 ft | 248 kts | 317° |
| 2026-05-05 00:18 | 37.45006 | -103.58698 | 29598 ft | 249 kts | 317° |
| 2026-05-05 00:18 | 37.46563 | -103.59675 | 29600 ft | 250 kts | 317° |
| 2026-05-05 00:18 | 37.48112 | -103.60647 | 29601 ft | 252 kts | 317° |
| 2026-05-05 00:19 | 37.49689 | -103.61627 | 29594 ft | 253 kts | 317° |
| 2026-05-05 00:19 | 37.51272 | -103.62616 | 29596 ft | 254 kts | 317° |
| 2026-05-05 00:19 | 37.52862 | -103.63611 | 29596 ft | 255 kts | 317° |
| 2026-05-05 00:19 | 37.54453 | -103.64606 | 29592 ft | 255 kts | 317° |
| 2026-05-05 00:20 | 37.56026 | -103.65593 | 29592 ft | 256 kts | 317° |
| 2026-05-05 00:20 | 37.57628 | -103.66593 | 29589 ft | 255 kts | 317° |
| 2026-05-05 00:20 | 37.59220 | -103.67574 | 29590 ft | 253 kts | 317° |
| 2026-05-05 00:20 | 37.60781 | -103.68559 | 29586 ft | 253 kts | 317° |
| 2026-05-05 00:21 | 37.62358 | -103.69561 | 29584 ft | 254 kts | 317° |
| 2026-05-05 00:21 | 37.63940 | -103.70552 | 29582 ft | 254 kts | 317° |
| 2026-05-05 00:21 | 37.65526 | -103.71543 | 29581 ft | 253 kts | 317° |
| 2026-05-05 00:21 | 37.67079 | -103.72523 | 29580 ft | 252 kts | 317° |
| 2026-05-05 00:22 | 37.68658 | -103.73511 | 29582 ft | 252 kts | 317° |
| 2026-05-05 00:22 | 37.70233 | -103.74502 | 29582 ft | 253 kts | 317° |
| 2026-05-05 00:22 | 37.71818 | -103.75499 | 29584 ft | 254 kts | 317° |
| 2026-05-05 00:22 | 37.73381 | -103.76483 | 29584 ft | 254 kts | 317° |
| 2026-05-05 00:23 | 37.74971 | -103.77484 | 29585 ft | 255 kts | 317° |
| 2026-05-05 00:23 | 37.76547 | -103.78477 | 29585 ft | 255 kts | 317° |
| 2026-05-05 00:23 | 37.78139 | -103.79479 | 29585 ft | 255 kts | 317° |
| 2026-05-05 00:23 | 37.79726 | -103.80479 | 29585 ft | 255 kts | 317° |
| 2026-05-05 00:24 | 37.81296 | -103.81470 | 29587 ft | 254 kts | 317° |
| 2026-05-05 00:24 | 37.82881 | -103.82471 | 29586 ft | 254 kts | 317° |
| 2026-05-05 00:24 | 37.84470 | -103.83472 | 29595 ft | 254 kts | 317° |
| 2026-05-05 00:24 | 37.86021 | -103.84444 | 29592 ft | 248 kts | 317° |
| 2026-05-05 00:25 | 37.87556 | -103.85415 | 29583 ft | 246 kts | 316° |
| 2026-05-05 00:25 | 37.89090 | -103.86397 | 29578 ft | 247 kts | 316° |
| 2026-05-05 00:25 | 37.90635 | -103.87371 | 29578 ft | 248 kts | 317° |
| 2026-05-05 00:25 | 37.92176 | -103.88344 | 29580 ft | 250 kts | 317° |
| 2026-05-05 00:26 | 37.93734 | -103.89329 | 29587 ft | 251 kts | 317° |
| 2026-05-05 00:26 | 37.95305 | -103.90325 | 29588 ft | 252 kts | 317° |
| 2026-05-05 00:26 | 37.96870 | -103.91317 | 29589 ft | 253 kts | 317° |
| 2026-05-05 00:26 | 37.98450 | -103.92320 | 29605 ft | 254 kts | 317° |
| 2026-05-05 00:27 | 38.00035 | -103.93324 | 29608 ft | 254 kts | 317° |
| 2026-05-05 00:27 | 38.01602 | -103.94320 | 29607 ft | 255 kts | 317° |
| 2026-05-05 00:27 | 38.03198 | -103.95333 | 29605 ft | 256 kts | 317° |
| 2026-05-05 00:27 | 38.04792 | -103.96345 | 29601 ft | 256 kts | 317° |
| 2026-05-05 00:28 | 38.06392 | -103.97360 | 29611 ft | 254 kts | 317° |
| 2026-05-05 00:28 | 38.07919 | -103.98316 | 29600 ft | 242 kts | 317° |
| 2026-05-05 00:28 | 38.09415 | -103.99275 | 29588 ft | 240 kts | 316° |
| 2026-05-05 00:28 | 38.10916 | -104.00244 | 29596 ft | 242 kts | 317° |
| 2026-05-05 00:29 | 38.12429 | -104.01204 | 29592 ft | 244 kts | 317° |
| 2026-05-05 00:29 | 38.13933 | -104.02160 | 29593 ft | 244 kts | 317° |
| 2026-05-05 00:29 | 38.15463 | -104.03134 | 29595 ft | 245 kts | 317° |
| 2026-05-05 00:29 | 38.16977 | -104.04100 | 29597 ft | 246 kts | 317° |
| 2026-05-05 00:30 | 38.18514 | -104.05079 | 29608 ft | 247 kts | 317° |
| 2026-05-05 00:30 | 38.20052 | -104.06063 | 29612 ft | 247 kts | 317° |
| 2026-05-05 00:30 | 38.21600 | -104.07051 | 29617 ft | 248 kts | 317° |
| 2026-05-05 00:30 | 38.23106 | -104.08063 | 29629 ft | 243 kts | 314° |
| 2026-05-05 00:31 | 38.24478 | -104.09262 | 29632 ft | 236 kts | 309° |
| 2026-05-05 00:31 | 38.25691 | -104.10581 | 29542 ft | 217 kts | 304° |
| 2026-05-05 00:31 | 38.26710 | -104.11949 | 28344 ft | 215 kts | 301° |
| 2026-05-05 00:31 | 38.27639 | -104.13510 | 26925 ft | 226 kts | 298° |
| 2026-05-05 00:32 | 38.28474 | -104.15267 | 25509 ft | 237 kts | 294° |
| 2026-05-05 00:32 | 38.29176 | -104.17198 | 24077 ft | 249 kts | 289° |
| 2026-05-05 00:32 | 38.29733 | -104.19360 | 22456 ft | 264 kts | 283° |
| 2026-05-05 00:32 | 38.30089 | -104.21698 | 20766 ft | 273 kts | 278° |
| 2026-05-05 00:33 | 38.30212 | -104.24146 | 19078 ft | 281 kts | 270° |
| 2026-05-05 00:33 | 38.30117 | -104.26629 | 17242 ft | 289 kts | 267° |
| 2026-05-05 00:33 | 38.30001 | -104.29209 | 15355 ft | 294 kts | 267° |
| 2026-05-05 00:33 | 38.29940 | -104.31756 | 13920 ft | 281 kts | 271° |
| 2026-05-05 00:34 | 38.30211 | -104.34201 | 12320 ft | 277 kts | 282° |
| 2026-05-05 00:34 | 38.30817 | -104.36490 | 10743 ft | 270 kts | 293° |
| 2026-05-05 00:34 | 38.31722 | -104.38560 | 9082 ft | 266 kts | 303° |
| 2026-05-05 00:34 | 38.32894 | -104.40346 | 7879 ft | 254 kts | 313° |
| 2026-05-05 00:35 | 38.34192 | -104.41757 | 7761 ft | 248 kts | 321° |
| 2026-05-05 00:35 | 38.35685 | -104.42907 | 7760 ft | 253 kts | 331° |
| 2026-05-05 00:35 | 38.37328 | -104.43722 | 7758 ft | 255 kts | 341° |
| 2026-05-05 00:35 | 38.39076 | -104.44170 | 7749 ft | 258 kts | 349° |
| 2026-05-05 00:36 | 38.40862 | -104.44378 | 7748 ft | 258 kts | 351° |
| 2026-05-05 00:36 | 38.42651 | -104.44614 | 7739 ft | 258 kts | 351° |
| 2026-05-05 00:36 | 38.43835 | -104.44775 | 7737 ft | 259 kts | 351° |
| 2026-05-05 00:37 | 38.48014 | -104.45301 | 7730 ft | 256 kts | 353° |
| 2026-05-05 00:37 | 38.49793 | -104.45530 | 7728 ft | 257 kts | 353° |
| 2026-05-05 00:37 | 38.51568 | -104.45757 | 7723 ft | 256 kts | 354° |
| 2026-05-05 00:37 | 38.53345 | -104.45983 | 7718 ft | 257 kts | 354° |
| 2026-05-05 00:38 | 38.55124 | -104.46208 | 7710 ft | 256 kts | 353° |
| 2026-05-05 00:38 | 38.56887 | -104.46433 | 7702 ft | 256 kts | 353° |
| 2026-05-05 00:38 | 38.58667 | -104.46662 | 7705 ft | 256 kts | 353° |
| 2026-05-05 00:38 | 38.60441 | -104.46887 | 7701 ft | 257 kts | 354° |
| 2026-05-05 00:39 | 38.62205 | -104.47112 | 7699 ft | 257 kts | 353° |
| 2026-05-05 00:39 | 38.64007 | -104.47343 | 7695 ft | 257 kts | 353° |
| 2026-05-05 00:39 | 38.65765 | -104.47569 | 7688 ft | 256 kts | 353° |
| 2026-05-05 00:39 | 38.67535 | -104.47797 | 7798 ft | 255 kts | 355° |
| 2026-05-05 00:40 | 38.69304 | -104.48021 | 7808 ft | 255 kts | 356° |
| 2026-05-05 00:40 | 38.71069 | -104.48247 | 7816 ft | 254 kts | 356° |
| 2026-05-05 00:40 | 38.72834 | -104.48473 | 7817 ft | 254 kts | 355° |
| 2026-05-05 00:40 | 38.74589 | -104.48695 | 7827 ft | 253 kts | 356° |
| 2026-05-05 00:41 | 38.76312 | -104.48895 | 7832 ft | 252 kts | 351° |
| 2026-05-05 00:41 | 38.77853 | -104.49961 | 7835 ft | 257 kts | 318° |
| 2026-05-05 00:41 | 38.79235 | -104.51150 | 7997 ft | 218 kts | 345° |
| 2026-05-05 00:41 | 38.80623 | -104.51565 | 8004 ft | 194 kts | 352° |
| 2026-05-05 00:42 | 38.81891 | -104.51803 | 8047 ft | 167 kts | 354° |
| 2026-05-05 00:42 | 38.82958 | -104.51980 | 8050 ft | 146 kts | 354° |
| 2026-05-05 00:42 | 38.83935 | -104.52209 | 7917 ft | 142 kts | 346° |
| 2026-05-05 00:42 | 38.84826 | -104.52701 | 7843 ft | 135 kts | 339° |
| 2026-05-05 00:43 | 38.85673 | -104.53153 | 7828 ft | 128 kts | 343° |
| 2026-05-05 00:43 | 38.86489 | -104.53505 | 7765 ft | 125 kts | 346° |
| 2026-05-05 00:43 | 38.87320 | -104.53843 | 7713 ft | 126 kts | 344° |
| 2026-05-05 00:43 | 38.87838 | -104.54097 | 7688 ft | 114 kts | 342° |
| 2026-05-05 00:44 | 38.88522 | -104.54408 | 7608 ft | 95 kts | 346° |
| 2026-05-05 00:44 | 38.89344 | -104.54731 | 7542 ft | 94 kts | 343° |
| 2026-05-05 00:44 | 38.89957 | -104.55013 | 7470 ft | 91 kts | 345° |
| 2026-05-05 00:44 | 38.90362 | -104.55200 | 7387 ft | 96 kts | 342° |
| 2026-05-05 00:45 | 38.91192 | -104.55582 | 7286 ft | 93 kts | 347° |
| 2026-05-05 00:45 | 38.91606 | -104.55762 | 7233 ft | 93 kts | 343° |
| 2026-05-05 00:45 | 38.92189 | -104.56025 | 7173 ft | 89 kts | 343° |
| 2026-05-05 00:45 | 38.92754 | -104.56281 | 7049 ft | 85 kts | 341° |
| 2026-05-05 00:46 | 38.93306 | -104.56533 | 6923 ft | 84 kts | 343° |
| 2026-05-05 00:46 | 38.93842 | -104.56776 | 6828 ft | 81 kts | 343° |
| 2026-05-05 00:46 | 38.94290 | -104.56982 | 6825 ft | 55 kts | 339° |
| 2026-05-05 00:46 | 38.94555 | -104.57102 | 6838 ft | 16 kts | 340° |
| 2026-05-05 00:47 | 38.94597 | -104.57097 | 6841 ft | 4 kts | 63° |
| 2026-05-05 00:47 | 38.94603 | -104.57078 | 6841 ft | 0 kts | 70° |
| 2026-05-05 00:47 | 38.94620 | -104.57071 | 6843 ft | 8 kts | 339° |
| 2026-05-05 00:47 | 38.94678 | -104.57100 | 6847 ft | 9 kts | 341° |
| 2026-05-05 00:48 | 38.94745 | -104.57128 | 6858 ft | 11 kts | 341° |
| 2026-05-05 00:48 | 38.94828 | -104.57166 | 6854 ft | 16 kts | 340° |
| 2026-05-05 00:48 | 38.94910 | -104.57205 | 6855 ft | 15 kts | 342° |
| 2026-05-05 00:48 | 38.95024 | -104.57256 | 6859 ft | 19 kts | 340° |
| 2026-05-05 00:49 | 38.95131 | -104.57305 | 6869 ft | 13 kts | 340° |
| 2026-05-05 00:49 | 38.95226 | -104.57348 | 6868 ft | 15 kts | 340° |
| 2026-05-05 00:49 | 38.95300 | -104.57381 | 6873 ft | 6 kts | 339° |
| 2026-05-05 00:49 | 38.95325 | -104.57393 | 6870 ft | 2 kts | 340° |
| 2026-05-05 00:50 | 38.95326 | -104.57393 | 6870 ft | 0 kts | 340° |
| 2026-05-05 00:50 | 38.95338 | -104.57399 | 6871 ft | 6 kts | 344° |
| 2026-05-05 00:50 | 38.95372 | -104.57377 | 6875 ft | 11 kts | 109° |
| 2026-05-05 00:51 | 38.95402 | -104.57357 | 6871 ft | 2 kts | 359° |
| 2026-05-05 00:51 | 38.95404 | -104.57357 | 6871 ft | 0 kts | 357° |
| 2026-05-05 01:02 | 38.95403 | -104.57357 | 6871 ft | 0 kts | 358° |